createdAt,value
2022-09-12T00:01:07.079Z,15.50
2022-09-12T00:06:11.857Z,15.40
2022-09-12T00:11:14.075Z,15.30
2022-09-12T00:16:17.818Z,15.20
2022-09-12T00:21:20.881Z,15.10
2022-09-12T00:26:22.701Z,15.10
2022-09-12T00:31:26.650Z,15.20
2022-09-12T00:36:29.702Z,15.30
2022-09-12T00:41:34.446Z,15.40
2022-09-12T00:46:43.036Z,15.50
2022-09-12T00:52:08.407Z,15.50
2022-09-12T00:57:11.566Z,15.40
2022-09-12T01:02:13.373Z,15.40
2022-09-12T01:07:15.542Z,15.30
2022-09-12T01:12:18.733Z,15.10
2022-09-12T01:17:20.393Z,14.90
2022-09-12T01:23:02.691Z,15.00
2022-09-12T01:28:38.327Z,15.10
2022-09-12T01:34:14.948Z,15.10
2022-09-12T01:39:25.388Z,15.20
2022-09-12T01:44:37.616Z,15.10
2022-09-12T01:49:56.191Z,15.10
2022-09-12T01:55:09.583Z,15.20
2022-09-12T02:00:12.794Z,15.10
2022-09-12T02:05:34.553Z,15.00
2022-09-12T02:10:44.961Z,14.90
2022-09-12T02:15:52.626Z,14.80
2022-09-12T02:20:55.857Z,14.70
2022-09-12T02:26:04.485Z,14.60
2022-09-12T02:31:38.923Z,14.60
2022-09-12T02:36:46.271Z,14.50
2022-09-12T02:41:51.727Z,14.40
2022-09-12T02:46:58.567Z,14.30
2022-09-12T02:52:02.074Z,14.20
2022-09-12T02:57:06.093Z,14.10
2022-09-12T03:02:41.994Z,14.00
2022-09-12T03:07:49.747Z,14.00
2022-09-12T03:13:00.930Z,13.90
2022-09-12T03:18:12.811Z,13.80
2022-09-12T03:23:29.234Z,13.80
2022-09-12T03:28:32.844Z,13.70
2022-09-12T03:33:34.466Z,13.70
2022-09-12T03:38:36.105Z,13.60
2022-09-12T03:43:37.757Z,13.50
2022-09-12T03:48:40.510Z,13.50
2022-09-12T03:53:42.206Z,13.40
2022-09-12T03:58:43.891Z,13.40
2022-09-12T04:03:48.636Z,13.40
2022-09-12T04:08:54.576Z,13.30
2022-09-12T04:13:56.212Z,13.40
2022-09-12T04:18:57.958Z,13.60
2022-09-12T04:23:59.570Z,13.60
2022-09-12T04:29:01.382Z,13.60
2022-09-12T04:34:03.386Z,13.70
2022-09-12T04:39:06.054Z,13.80
2022-09-12T04:44:12.206Z,13.90
2022-09-12T04:49:16.555Z,13.90
2022-09-12T04:54:19.476Z,14.00
2022-09-12T04:59:22.054Z,13.90
2022-09-12T05:04:24.205Z,13.90
2022-09-12T05:09:25.940Z,13.80
2022-09-12T05:14:28.392Z,13.70
2022-09-12T05:19:30.852Z,13.70
2022-09-12T05:24:32.748Z,13.70
2022-09-12T05:29:34.696Z,13.60
2022-09-12T05:34:37.737Z,13.70
2022-09-12T05:39:39.391Z,13.70
2022-09-12T05:44:41.080Z,13.90
2022-09-12T05:49:44.711Z,14.00
2022-09-12T05:54:48.203Z,14.10
2022-09-12T05:59:50.750Z,14.20
2022-09-12T06:04:52.385Z,14.40
2022-09-12T06:09:54.110Z,14.70
2022-09-12T06:14:56.038Z,14.80
2022-09-12T06:19:57.673Z,14.90
2022-09-12T06:24:59.285Z,15.00
2022-09-12T06:30:00.924Z,15.10
2022-09-12T06:35:03.650Z,15.10
2022-09-12T06:40:05.784Z,15.00
2022-09-12T06:45:08.172Z,14.80
2022-09-12T06:50:10.008Z,14.80
2022-09-12T06:55:12.777Z,15.00
2022-09-12T07:00:16.100Z,15.20
2022-09-12T07:05:17.740Z,15.30
2022-09-12T07:10:22.347Z,15.40
2022-09-12T07:15:24.152Z,15.50
2022-09-12T07:20:25.840Z,15.70
2022-09-12T07:25:27.561Z,16.00
2022-09-12T07:30:29.190Z,16.10
2022-09-12T07:35:33.864Z,16.40
2022-09-12T07:40:35.488Z,16.60
2022-09-12T07:45:37.199Z,16.90
2022-09-12T07:50:42.020Z,17.20
2022-09-12T07:55:54.436Z,17.40
2022-09-12T08:01:05.895Z,17.30
2022-09-12T08:06:11.134Z,17.00
2022-09-12T08:11:16.488Z,16.70
2022-09-12T08:16:23.336Z,16.50
2022-09-12T08:21:27.517Z,16.70
2022-09-12T08:26:30.381Z,16.80
2022-09-12T08:31:36.523Z,16.90
2022-09-12T08:36:38.310Z,17.00
2022-09-12T08:41:43.569Z,17.10
2022-09-12T08:47:03.947Z,17.10
2022-09-12T08:52:12.873Z,17.20
2022-09-12T08:57:15.581Z,17.40
2022-09-12T09:02:38.958Z,17.50
2022-09-12T09:08:00.274Z,17.60
2022-09-12T09:13:50.805Z,17.80
2022-09-12T09:18:53.998Z,17.90
2022-09-12T09:24:05.379Z,18.20
2022-09-12T09:29:19.786Z,18.40
2022-09-12T09:34:30.046Z,18.40
2022-09-12T09:39:45.308Z,18.50
2022-09-12T09:44:49.129Z,18.80
2022-09-12T09:49:50.864Z,19.20
2022-09-12T09:54:59.531Z,19.70
2022-09-12T10:00:27.734Z,19.50
2022-09-12T10:05:31.394Z,19.40
2022-09-12T10:10:33.110Z,19.50
2022-09-12T10:15:34.966Z,19.30
2022-09-12T10:20:45.351Z,19.50
2022-09-12T10:25:53.848Z,19.80
2022-09-12T10:30:56.274Z,20.10
2022-09-12T10:36:04.060Z,20.60
2022-09-12T10:41:11.391Z,21.20
2022-09-12T10:46:16.329Z,21.80
2022-09-12T10:51:23.900Z,21.80
2022-09-12T10:56:33.469Z,22.30
2022-09-12T11:01:38.546Z,22.30
2022-09-12T11:06:57.963Z,22.30
2022-09-12T11:12:18.101Z,22.50
2022-09-12T11:17:43.243Z,22.80
2022-09-12T11:23:04.260Z,22.80
2022-09-12T11:28:25.013Z,22.70
2022-09-12T11:33:42.841Z,22.60
2022-09-12T11:38:54.418Z,21.60
2022-09-12T11:44:39.909Z,21.20
2022-09-12T11:49:48.574Z,20.90
2022-09-12T11:55:05.095Z,21.00
2022-09-12T12:00:26.691Z,20.90
2022-09-12T12:05:30.723Z,21.10
2022-09-12T12:10:39.352Z,21.30
2022-09-12T12:15:48.391Z,21.40
2022-09-12T12:20:51.828Z,21.30
2022-09-12T12:25:58.856Z,21.80
2022-09-12T12:31:01.946Z,21.80
2022-09-12T12:36:07.723Z,21.70
2022-09-12T12:41:18.638Z,21.50
2022-09-12T12:46:22.890Z,21.50
2022-09-12T12:51:39.715Z,21.40
2022-09-12T12:56:42.580Z,21.70
2022-09-12T13:01:54.939Z,22.30
2022-09-12T13:07:08.330Z,22.50
2022-09-12T13:12:19.304Z,22.50
2022-09-12T13:17:37.965Z,22.50
2022-09-12T13:22:41.969Z,22.50
2022-09-12T13:27:59.142Z,22.90
2022-09-12T13:33:10.040Z,22.90
2022-09-12T13:38:38.871Z,22.80
2022-09-12T13:43:43.576Z,23.30
2022-09-12T13:48:45.761Z,23.30
2022-09-12T13:53:48.065Z,23.20
2022-09-12T13:58:57.927Z,23.20
2022-09-12T14:04:18.566Z,23.40
2022-09-12T14:09:32.733Z,23.60
2022-09-12T14:14:37.372Z,24.00
2022-09-12T14:19:39.878Z,23.40
2022-09-12T14:24:41.946Z,23.00
2022-09-12T14:29:44.254Z,23.00
2022-09-12T14:35:05.301Z,22.50
2022-09-12T14:40:40.676Z,22.50
2022-09-12T14:45:42.432Z,22.70
2022-09-12T14:50:48.337Z,22.80
2022-09-12T14:56:06.841Z,22.90
2022-09-12T15:01:08.576Z,22.80
2022-09-12T15:06:30.260Z,22.80
2022-09-12T15:11:33.518Z,22.70
2022-09-12T15:16:35.190Z,22.30
2022-09-12T15:21:36.828Z,22.30
2022-09-12T15:26:38.557Z,22.60
2022-09-12T15:31:40.419Z,22.60
2022-09-12T15:36:42.044Z,22.30
2022-09-12T15:41:43.785Z,22.40
2022-09-12T15:46:45.589Z,22.60
2022-09-12T15:51:47.326Z,22.60
2022-09-12T15:56:49.645Z,22.50
2022-09-12T16:01:51.623Z,22.30
2022-09-12T16:06:54.937Z,22.20
2022-09-12T16:11:56.594Z,22.20
2022-09-12T16:16:58.335Z,22.40
2022-09-12T16:21:59.977Z,22.20
2022-09-12T16:27:01.760Z,22.10
2022-09-12T16:32:03.629Z,22.10
2022-09-12T16:37:05.694Z,22.00
2022-09-12T16:42:07.358Z,21.80
2022-09-12T16:47:09.055Z,21.70
2022-09-12T16:52:10.895Z,21.60
2022-09-12T16:57:12.694Z,21.50
2022-09-12T17:02:14.979Z,21.20
2022-09-12T17:07:16.631Z,21.10
2022-09-12T17:12:18.223Z,20.90
2022-09-12T17:17:19.987Z,20.70
2022-09-12T17:22:21.614Z,20.60
2022-09-12T17:27:23.237Z,20.40
2022-09-12T17:32:25.472Z,20.20
2022-09-12T17:37:28.015Z,20.00
2022-09-12T17:42:29.792Z,19.80
2022-09-12T17:47:31.425Z,19.60
2022-09-12T17:52:33.289Z,19.40
2022-09-12T17:57:34.918Z,19.20
2022-09-12T18:02:36.638Z,19.10
2022-09-12T18:07:43.479Z,19.00
2022-09-12T18:12:47.008Z,18.90
2022-09-12T18:17:48.628Z,18.80
2022-09-12T18:22:50.245Z,18.60
2022-09-12T18:27:52.251Z,18.50
2022-09-12T18:32:53.906Z,18.40
2022-09-12T18:37:56.664Z,18.20
2022-09-12T18:42:58.337Z,18.10
2022-09-12T18:48:00.119Z,18.00
2022-09-12T18:53:01.823Z,17.90
2022-09-12T18:58:03.489Z,17.80
2022-09-12T19:03:05.106Z,17.70
2022-09-12T19:08:06.753Z,17.60
2022-09-12T19:13:08.399Z,17.50
2022-09-12T19:18:10.036Z,17.40
2022-09-12T19:23:11.697Z,17.30
2022-09-12T19:28:13.313Z,17.30
2022-09-12T19:33:14.990Z,17.20
2022-09-12T19:38:17.613Z,17.10
2022-09-12T19:43:19.258Z,17.00
2022-09-12T19:48:21.620Z,16.90
2022-09-12T19:53:23.334Z,16.80
2022-09-12T19:58:25.141Z,16.80
2022-09-12T20:03:27.569Z,16.70
2022-09-12T20:08:29.337Z,16.70
2022-09-12T20:13:31.086Z,16.60
2022-09-12T20:18:32.878Z,16.50
2022-09-12T20:23:34.715Z,16.50
2022-09-12T20:28:37.596Z,16.40
2022-09-12T20:33:40.052Z,16.40
2022-09-12T20:38:46.278Z,16.40
2022-09-12T20:43:52.368Z,16.40
2022-09-12T20:48:54.676Z,16.30
2022-09-12T20:54:01.254Z,16.30
2022-09-12T20:59:04.242Z,16.20
2022-09-12T21:04:06.138Z,16.10
2022-09-12T21:09:07.908Z,16.10
2022-09-12T21:14:09.653Z,16.00
2022-09-12T21:19:11.416Z,16.00
2022-09-12T21:24:14.992Z,15.90
2022-09-12T21:29:16.717Z,15.90
2022-09-12T21:34:18.380Z,15.90
2022-09-12T21:39:20.140Z,15.90
2022-09-12T21:44:22.580Z,15.90
2022-09-12T21:49:24.351Z,15.90
2022-09-12T21:54:26.143Z,15.80
2022-09-12T21:59:27.837Z,15.80
2022-09-12T22:04:31.510Z,15.70
2022-09-12T22:09:34.290Z,15.70
2022-09-12T22:14:36.627Z,15.60
2022-09-12T22:19:38.708Z,15.40
2022-09-12T22:24:40.323Z,15.40
2022-09-12T22:29:42.579Z,15.30
2022-09-12T22:34:44.412Z,15.30
2022-09-12T22:39:46.417Z,15.30
2022-09-12T22:44:48.049Z,15.30
2022-09-12T22:49:49.726Z,15.30
2022-09-12T22:54:51.488Z,15.20
2022-09-12T22:59:53.137Z,15.30
2022-09-12T23:04:54.757Z,15.30
2022-09-12T23:09:56.426Z,15.20
2022-09-12T23:14:58.043Z,15.10
2022-09-12T23:19:59.828Z,15.00
2022-09-12T23:25:01.454Z,15.00
2022-09-12T23:30:03.343Z,14.90
2022-09-12T23:35:05.402Z,15.00
2022-09-12T23:40:08.861Z,14.90
2022-09-12T23:45:10.662Z,14.90
2022-09-12T23:50:12.283Z,14.80
2022-09-12T23:55:14.012Z,14.80
